CheckWX is a tool to help pilots better visualize weather data.  It is not intended as a substitute for an official pre-flight weather briefing.

02:26:21 UTC

VTSP METAR
Phuket International Airport
Phuket, Thailand
Current

26 mins ago

VTSP 210200Z 10009KT 020V140 9999 FEW020 29/21 Q1016 NOSIG
Observed
Feb-21 @ 02:00 UTC
Wind
  • 100° at 9 KTS
Visibility
10,000+ meters
Flight Rules
VFR
Cloud Levels
  • Few at 2,000' AGL
Temperature
29°C / 84°F
Dewpoint
21°C / 70°F
Heat Index
31°C / 88°F
Humidity
62%
Altimeter
30" Hg
Pressure
1015.92 hPa
Previous

56 mins ago

VTSP 210130Z 10010KT 050V120 9999 FEW020 28/21 Q1015 NOSIG
Observed
Feb-21 @ 01:30 UTC
Wind
  • 100° at 10 KTS
Visibility
10,000+ meters
Flight Rules
VFR
Cloud Levels
  • Few at 2,000' AGL
Temperature
28°C / 82°F
Dewpoint
21°C / 70°F
Heat Index
30°C / 86°F
Humidity
66%
Altimeter
29.97" Hg
Pressure
1014.92 hPa
Previous

1 hour ago

VTSP 210100Z 10005KT 050V150 9999 FEW020 27/21 Q1015 NOSIG
Observed
Feb-21 @ 01:00 UTC
Wind
  • 100° at 5 KTS
Visibility
10,000+ meters
Flight Rules
VFR
Cloud Levels
  • Few at 2,000' AGL
Temperature
27°C / 81°F
Dewpoint
21°C / 70°F
Heat Index
29°C / 85°F
Humidity
70%
Altimeter
29.97" Hg
Pressure
1014.92 hPa